KEYWKMTH

Guest
Details From KEYW - Key West Intl
To KMTH - The Florida Keys Marathon
Flight Number -
Tags generated
Created
Modified
Stats Distance 40 nm / 74 km
Max Altitude 500 ft / 152 m
Waypoints 3
Social Downloads 4
Likes 0
Share VATSIM

Download

Looking for another format? Having issues loading an existing format? Contact us
Advertisement - Login to hide

Notes

Basic altitude profile: - Ascent Rate: 2500ft/min - Ascent Speed: 250kts - Cruise Altitude: 500ft - Cruise Speed: 420kts - Descent Rate: 1500ft/min - Descent Speed: 250kts Options: - Use NATs: yes - Use PACOTS: yes - Use low airways: yes - Use high airways: no

Route

KEYW MTH KMTH

ID Type Via Altitude Latitude Longitude Leg Dist Tot Dist Heading (true) Name
O KEYW APT - 0 ft / 0 m 24.55612˚ -81.75955˚ - 0 nm - Key West Intl
MTH NDB - 500 ft / 152 m 24.71189˚ -81.09531˚ 37 nm 37 nm 75° / 76° MARATHON NDB
O KMTH APT - 0 ft / 0 m 24.72618˚ -81.05137˚ 2 nm 39 nm 70° / 70° The Florida Keys Marathon

Altitude Profile

Advertisement - Login to hide

KEYW

Details ICAO KEYW (EYW)
Name Key West Intl
Region United States
Timezone America/New_York (UTC-5.0)
Stats Elevation 2 ft / 1 m (AMSL)
Location 24.556124° -81.759546°
Runways 1
Magnetic Variation 5.546° W

METAR

KEYW 171900Z 09010KT 10SM FEW022 FEW027 26/23 A3015 RMK AO2 T02610228 $

Decode

TAF

TAF KEYW 171738Z 1718/1818 09012G19KT P6SM SCT019 BKN030 FM171900 10012G20KT P6SM FEW019 SCT030 FM180000 07007KT P6SM FEW020 SCT040 FM181400 09012KT P6SM FEW020

Decode

Departure Runways

ID Width Length Bearing (true) Bearing (mag) Surface Threshold Offset Overrun Length
09 100 ft / 30 m 4,794 ft / 1,461 m 89.38° 94.93° Asphalt 151 ft / 46 m 0 ft / 0 m
27 100 ft / 30 m 4,794 ft / 1,461 m 269.39° 274.94° Asphalt 151 ft / 46 m 0 ft / 0 m

KMTH

Details ICAO KMTH (MTH)
Name The Florida Keys Marathon
Region United States
Timezone America/New_York (UTC-5.0)
Stats Elevation 5 ft / 2 m (AMSL)
Location 24.726183° -81.051368°
Runways 1
Magnetic Variation 6.011° W

METAR

KMTH 171853Z AUTO 09007KT 10SM FEW019 FEW034 27/21 A3015 RMK AO2 SLP210 T02720211 $

Decode

TAF

TAF KMTH 171738Z 1718/1818 09010G18KT P6SM SCT023 TEMPO 1718/1719 BKN023 FM180000 07006KT P6SM FEW020 SCT040 FM181400 09010KT P6SM FEW020

Decode

Destination Runways

ID Width Length Bearing (true) Bearing (mag) Surface Threshold Offset Overrun Length
07 98 ft / 30 m 5,006 ft / 1,526 m 67.17° 73.18° Asphalt 0 ft / 0 m 410 ft / 125 m
25 98 ft / 30 m 5,006 ft / 1,526 m 247.18° 253.19° Asphalt 0 ft / 0 m 410 ft / 125 m

Popular Alternatives